createdAt,value
2019-04-23T00:01:35.365Z,98156.22
2019-04-23T00:04:03.769Z,98158.84
2019-04-23T00:06:34.306Z,98153.19
2019-04-23T00:09:15.750Z,98146.49
2019-04-23T00:14:11.556Z,98143.83
2019-04-23T00:16:38.202Z,98149.42
2019-04-23T00:19:12.014Z,98139.41
2019-04-23T00:22:13.305Z,98138.35
2019-04-23T00:25:21.894Z,98136.95
2019-04-23T00:32:23.737Z,98141.92
2019-04-23T00:37:25.654Z,98138.38
2019-04-23T00:44:54.296Z,98120.50
2019-04-23T00:47:25.559Z,98126.31
2019-04-23T00:50:04.310Z,98122.56
2019-04-23T00:52:30.474Z,98119.16
2019-04-23T00:55:09.984Z,98118.87
2019-04-23T00:57:29.037Z,98114.95
2019-04-23T01:00:03.523Z,98113.86
2019-04-23T01:02:31.091Z,98112.56
2019-04-23T01:05:03.620Z,98101.80
2019-04-23T01:07:34.904Z,98102.69
2019-04-23T01:15:10.283Z,98086.77
2019-04-23T01:17:49.147Z,98083.50
2019-04-23T01:20:39.132Z,98079.09
2019-04-23T01:22:44.311Z,98086.14
2019-04-23T01:25:30.380Z,98079.83
2019-04-23T01:28:23.529Z,98082.14
2019-04-23T01:30:59.142Z,98082.12
2019-04-23T01:33:29.670Z,98094.58
2019-04-23T01:38:27.930Z,98085.27
2019-04-23T01:40:53.871Z,98084.84
2019-04-23T01:43:30.202Z,98080.31
2019-04-23T01:45:54.704Z,98072.62
2019-04-23T01:48:30.003Z,98071.15
2019-04-23T01:50:56.241Z,98068.38
2019-04-23T01:53:37.140Z,98071.83
2019-04-23T01:56:19.809Z,98066.95
2019-04-23T02:01:07.147Z,98066.00
2019-04-23T02:06:07.430Z,98059.47
2019-04-23T02:08:41.699Z,98055.55
2019-04-23T02:11:10.304Z,98059.98
2019-04-23T02:13:42.061Z,98056.28
2019-04-23T02:16:12.060Z,98054.16
2019-04-23T02:18:45.505Z,98049.91
2019-04-23T02:21:15.019Z,98050.41
2019-04-23T02:23:48.985Z,98053.04
2019-04-23T02:26:27.722Z,98047.81
2019-04-23T02:31:46.639Z,98045.53
2019-04-23T02:34:05.975Z,98041.31
2019-04-23T02:36:32.320Z,98039.08
2019-04-23T02:38:56.345Z,98035.86
2019-04-23T02:41:47.039Z,98031.77
2019-04-23T02:44:11.497Z,98029.84
2019-04-23T02:46:36.155Z,98024.48
2019-04-23T02:54:16.380Z,98009.66
2019-04-23T03:02:05.765Z,98004.47
2019-04-23T03:04:21.974Z,98001.69
2019-04-23T03:06:56.449Z,98000.27
2019-04-23T03:09:22.907Z,98000.61
2019-04-23T03:14:18.705Z,98001.91
2019-04-23T03:23:03.194Z,98004.56
2019-04-23T03:25:45.858Z,97996.39
2019-04-23T03:28:11.731Z,98003.25
2019-04-23T03:38:45.753Z,97995.32
2019-04-23T03:41:18.325Z,97995.97
2019-04-23T03:46:11.851Z,97992.05
2019-04-23T03:48:34.083Z,97992.23
2019-04-23T03:50:58.654Z,97999.73
2019-04-23T03:56:07.959Z,97994.52
2019-04-23T04:01:06.769Z,98000.56
2019-04-23T04:06:11.352Z,97996.98
2019-04-23T04:09:00.618Z,97995.50
2019-04-23T04:18:44.455Z,97991.77
2019-04-23T04:21:14.507Z,97977.78
2019-04-23T04:23:51.422Z,97980.22
2019-04-23T04:26:17.875Z,97976.16
2019-04-23T04:28:48.629Z,97976.16
2019-04-23T04:31:18.749Z,97975.96
2019-04-23T04:33:58.620Z,97963.78
2019-04-23T12:11:53.837Z,97827.73
2019-04-23T12:22:07.882Z,97829.77
2019-04-23T12:25:03.533Z,97830.34
2019-04-23T12:27:14.093Z,97837.27
2019-04-23T12:32:43.057Z,97837.17
2019-04-23T12:37:56.253Z,97832.14
2019-04-23T12:40:24.778Z,97834.77
2019-04-23T12:45:26.835Z,97826.47
2019-04-23T13:02:59.016Z,97829.63
2019-04-23T13:05:31.824Z,97826.98
2019-04-23T13:08:02.086Z,97826.52
2019-04-23T13:10:32.319Z,97828.98
2019-04-23T13:15:34.563Z,97825.27
2019-04-23T13:18:27.277Z,97824.39
2019-04-23T13:25:53.909Z,97818.59
2019-04-23T13:28:21.164Z,97813.11
2019-04-23T13:33:34.742Z,97817.60
2019-04-23T13:36:03.371Z,97810.12
2019-04-23T13:38:35.074Z,97813.52
2019-04-23T13:41:01.449Z,97812.45
2019-04-23T13:43:38.041Z,97800.78
2019-04-23T13:46:14.057Z,97800.48
2019-04-23T13:53:40.558Z,97803.17
2019-04-23T13:56:05.829Z,97802.93
2019-04-23T13:58:34.501Z,97799.24
2019-04-23T14:01:18.184Z,97795.36
2019-04-23T14:03:41.262Z,97791.38
2019-04-23T14:06:18.386Z,97797.83
2019-04-23T14:08:47.002Z,97793.75
2019-04-23T14:13:52.192Z,97796.30
2019-04-23T14:16:23.436Z,97790.84
2019-04-23T14:18:55.921Z,97789.01
2019-04-23T14:21:23.318Z,97790.27
2019-04-23T14:26:24.937Z,97787.53
2019-04-23T14:28:44.549Z,97784.59
2019-04-23T14:31:17.317Z,97783.02
2019-04-23T14:34:03.571Z,97779.30
2019-04-23T14:36:25.467Z,97774.89
2019-04-23T14:39:06.512Z,97776.81
2019-04-23T14:41:31.063Z,97782.20
2019-04-23T14:44:11.387Z,97778.96
2019-04-23T14:49:16.164Z,97777.15
2019-04-23T14:54:24.761Z,97782.25
2019-04-23T14:56:56.900Z,97774.91
2019-04-23T14:59:11.042Z,97771.03
2019-04-23T15:01:48.924Z,97775.71
2019-04-23T15:04:24.686Z,97774.65
2019-04-23T15:09:27.616Z,97771.69
2019-04-23T15:12:06.160Z,97765.70
2019-04-23T15:14:23.466Z,97774.69
2019-04-23T15:17:00.089Z,97774.33
2019-04-23T15:22:08.338Z,97760.48
2019-04-23T15:24:37.623Z,97764.38
2019-04-23T15:29:27.987Z,97758.33
2019-04-23T15:32:07.785Z,97758.02
2019-04-23T15:34:36.855Z,97754.06
2019-04-23T15:37:32.563Z,97765.55
2019-04-23T15:39:46.479Z,97762.91
2019-04-23T15:42:16.793Z,97756.50
2019-04-23T15:44:48.924Z,97759.97
2019-04-23T15:49:53.190Z,97758.45
2019-04-23T15:52:19.202Z,97754.03
2019-04-23T15:54:54.935Z,97757.09
2019-04-23T15:57:41.705Z,97760.95
2019-04-23T15:59:55.906Z,97758.52
2019-04-23T16:01:56.394Z,97762.23
2019-04-23T16:04:25.572Z,97757.97
2019-04-23T16:06:55.970Z,97758.13
2019-04-23T16:10:01.259Z,97751.25
2019-04-23T16:12:17.633Z,97752.66
2019-04-23T16:17:28.892Z,97744.58
2019-04-23T16:20:25.530Z,97740.50
2019-04-23T16:22:39.578Z,97737.63
2019-04-23T16:25:12.731Z,97739.77
2019-04-23T16:27:49.016Z,97745.06
2019-04-23T16:33:08.733Z,97745.55
2019-04-23T16:36:08.795Z,97749.78
2019-04-23T16:41:07.244Z,97742.58
2019-04-23T16:43:33.818Z,97747.09
2019-04-23T16:46:09.720Z,97746.73
2019-04-23T16:48:58.371Z,97748.80
2019-04-23T16:51:16.614Z,97743.97
2019-04-23T16:53:30.189Z,97745.79
2019-04-23T16:56:16.663Z,97744.69
2019-04-23T16:58:48.876Z,97740.03
2019-04-23T17:08:57.155Z,97743.84
2019-04-23T17:13:52.084Z,97743.22
2019-04-23T17:21:18.158Z,97743.11
2019-04-23T17:24:05.768Z,97742.59
2019-04-23T17:26:25.620Z,97744.20
2019-04-23T17:29:00.402Z,97742.50
2019-04-23T17:34:02.537Z,97742.55
2019-04-23T17:36:38.062Z,97738.42
2019-04-23T17:39:22.568Z,97736.87
2019-04-23T17:42:12.539Z,97739.13
2019-04-23T17:44:48.409Z,97737.45
2019-04-23T17:47:30.055Z,97731.91
2019-04-23T17:50:05.624Z,97742.06
2019-04-23T17:52:34.909Z,97740.38
2019-04-23T17:55:07.053Z,97742.49
2019-04-23T18:00:18.935Z,97735.96
2019-04-23T18:05:12.941Z,97745.46
2019-04-23T18:10:24.344Z,97745.56
2019-04-23T18:12:45.320Z,97746.43
2019-04-23T18:15:13.129Z,97744.17
2019-04-23T18:17:43.457Z,97746.88
2019-04-23T18:20:29.990Z,97749.44
2019-04-23T18:23:06.652Z,97746.58
2019-04-23T18:28:19.945Z,97754.59
2019-04-23T18:34:01.867Z,97753.55
2019-04-23T18:36:16.632Z,97755.06
2019-04-23T18:38:54.604Z,97755.64
2019-04-23T18:41:13.756Z,97754.31
2019-04-23T18:43:51.023Z,97748.61
2019-04-23T18:48:53.132Z,97764.33
2019-04-23T18:51:27.146Z,97767.28
2019-04-23T18:54:07.427Z,97770.77
2019-04-23T18:56:23.426Z,97766.45
2019-04-23T18:59:04.824Z,97771.45
2019-04-23T19:01:31.071Z,97766.70
2019-04-23T19:06:47.364Z,97777.91
2019-04-23T19:13:04.265Z,97782.11
2019-04-23T19:20:45.149Z,97792.93
2019-04-23T19:23:08.299Z,97791.30
2019-04-23T19:25:31.874Z,97792.56
2019-04-23T19:28:07.583Z,97799.66
2019-04-23T19:33:29.236Z,97798.74
2019-04-23T19:36:05.474Z,97801.79
2019-04-23T19:38:28.844Z,97796.91
2019-04-23T19:40:56.671Z,97803.98
2019-04-23T19:46:02.124Z,97794.17
2019-04-23T19:48:30.352Z,97804.27
2019-04-23T19:51:03.153Z,97804.20
2019-04-23T20:03:43.790Z,97823.95
2019-04-23T20:06:15.031Z,97819.80
2019-04-23T20:13:50.684Z,97824.97
2019-04-23T20:18:50.821Z,97827.25
2019-04-23T20:21:08.322Z,97823.22
2019-04-23T20:24:04.520Z,97827.94
2019-04-23T20:29:36.061Z,97833.66
2019-04-23T20:34:51.567Z,97835.41
2019-04-23T20:36:53.280Z,97837.89
2019-04-23T20:39:33.024Z,97834.46
2019-04-23T20:44:39.479Z,97834.79
2019-04-23T20:47:06.302Z,97831.67
2019-04-23T20:50:03.712Z,97832.06
2019-04-23T20:52:06.286Z,97839.89
2019-04-23T20:57:30.914Z,97833.48
2019-04-23T21:00:01.806Z,97830.30
2019-04-23T21:03:05.319Z,97834.26
2019-04-23T21:07:54.146Z,97839.20
2019-04-23T21:10:30.702Z,97844.66
2019-04-23T21:13:01.187Z,97844.90
2019-04-23T21:20:26.316Z,97852.79
2019-04-23T21:22:57.247Z,97849.41
2019-04-23T21:25:27.253Z,97852.84
2019-04-23T21:28:06.261Z,97857.30
2019-04-23T21:30:58.591Z,97857.12
2019-04-23T21:33:11.597Z,97861.81
2019-04-23T21:38:46.398Z,97859.53
2019-04-23T21:41:29.425Z,97860.56
2019-04-23T21:46:22.169Z,97863.69
2019-04-23T21:49:08.671Z,97868.39
2019-04-23T21:51:41.914Z,97867.05
2019-04-23T21:53:51.620Z,97872.59
2019-04-23T21:56:21.586Z,97869.68
2019-04-23T21:58:57.981Z,97871.80
2019-04-23T22:04:08.515Z,97869.91
2019-04-23T22:11:48.215Z,97875.70
2019-04-23T22:16:41.071Z,97889.20
2019-04-23T22:19:12.689Z,97890.13
2019-04-23T22:21:43.035Z,97892.11
2019-04-23T22:26:36.283Z,97897.39
2019-04-23T22:34:17.870Z,97899.78
2019-04-23T22:36:39.392Z,97892.41
2019-04-23T22:39:11.634Z,97898.30
2019-04-23T22:41:49.086Z,97904.63
2019-04-23T22:44:12.219Z,97901.87
2019-04-23T22:46:52.479Z,97905.55
2019-04-23T22:51:55.435Z,97911.08
2019-04-23T22:54:13.877Z,97905.10
2019-04-23T22:56:54.989Z,97899.92
2019-04-23T23:02:11.027Z,97909.95
2019-04-23T23:04:44.369Z,97907.30
2019-04-23T23:07:07.614Z,97912.25
2019-04-23T23:09:43.881Z,97911.67
2019-04-23T23:12:13.902Z,97917.77
2019-04-23T23:14:46.014Z,97917.65
2019-04-23T23:17:11.441Z,97920.99
2019-04-23T23:19:49.351Z,97926.30
2019-04-23T23:22:11.940Z,97920.58
2019-04-23T23:24:46.497Z,97925.77
2019-04-23T23:27:29.985Z,97924.49
2019-04-23T23:30:00.028Z,97928.94
2019-04-23T23:38:13.611Z,97932.66
2019-04-23T23:39:58.356Z,97928.17
2019-04-23T23:42:28.181Z,97930.30
2019-04-23T23:45:02.142Z,97936.87
2019-04-23T23:47:39.533Z,97933.77
2019-04-23T23:50:01.078Z,97929.42
2019-04-23T23:52:34.962Z,97927.05
2019-04-23T23:55:01.768Z,97923.52
2019-04-23T23:57:24.694Z,97924.98
